sensor_id;sensor_type;location;lat;lon;timestamp;P1;durP1;ratioP1;P2;durP2;ratioP2
65936;SDS011;52707;52.086;5.418;2023-11-19T00:01:43;28.30;;;8.52;;
65936;SDS011;52707;52.086;5.418;2023-11-19T00:04:09;19.20;;;7.25;;
65936;SDS011;52707;52.086;5.418;2023-11-19T00:06:36;48.50;;;7.28;;
65936;SDS011;52707;52.086;5.418;2023-11-19T00:09:02;21.38;;;7.22;;
65936;SDS011;52707;52.086;5.418;2023-11-19T00:11:30;22.77;;;7.68;;
65936;SDS011;52707;52.086;5.418;2023-11-19T00:13:56;28.27;;;7.30;;
65936;SDS011;52707;52.086;5.418;2023-11-19T00:16:22;25.95;;;6.35;;
65936;SDS011;52707;52.086;5.418;2023-11-19T00:18:49;37.53;;;7.45;;
65936;SDS011;52707;52.086;5.418;2023-11-19T00:21:16;32.20;;;8.02;;
65936;SDS011;52707;52.086;5.418;2023-11-19T00:23:42;28.90;;;7.25;;
65936;SDS011;52707;52.086;5.418;2023-11-19T00:26:08;30.98;;;7.43;;
65936;SDS011;52707;52.086;5.418;2023-11-19T00:28:35;32.10;;;7.05;;
65936;SDS011;52707;52.086;5.418;2023-11-19T00:31:05;26.85;;;6.93;;
65936;SDS011;52707;52.086;5.418;2023-11-19T00:33:31;30.30;;;6.57;;
65936;SDS011;52707;52.086;5.418;2023-11-19T00:35:58;38.47;;;6.88;;
65936;SDS011;52707;52.086;5.418;2023-11-19T00:38:24;44.30;;;7.00;;
65936;SDS011;52707;52.086;5.418;2023-11-19T00:40:50;40.17;;;7.03;;
65936;SDS011;52707;52.086;5.418;2023-11-19T00:43:17;41.65;;;6.00;;
65936;SDS011;52707;52.086;5.418;2023-11-19T00:45:45;31.73;;;5.10;;
65936;SDS011;52707;52.086;5.418;2023-11-19T00:48:11;44.88;;;6.60;;
65936;SDS011;52707;52.086;5.418;2023-11-19T00:50:37;29.08;;;5.40;;
65936;SDS011;52707;52.086;5.418;2023-11-19T00:53:07;39.22;;;6.30;;
65936;SDS011;52707;52.086;5.418;2023-11-19T00:55:33;34.78;;;6.00;;
65936;SDS011;52707;52.086;5.418;2023-11-19T00:57:59;41.67;;;6.28;;
65936;SDS011;52707;52.086;5.418;2023-11-19T01:00:26;35.88;;;5.65;;
65936;SDS011;52707;52.086;5.418;2023-11-19T01:02:53;46.17;;;6.70;;
65936;SDS011;52707;52.086;5.418;2023-11-19T01:05:20;38.22;;;5.43;;
65936;SDS011;52707;52.086;5.418;2023-11-19T01:07:49;32.50;;;5.83;;
65936;SDS011;52707;52.086;5.418;2023-11-19T01:10:16;37.38;;;5.15;;
65936;SDS011;52707;52.086;5.418;2023-11-19T01:12:44;44.40;;;5.82;;
65936;SDS011;52707;52.086;5.418;2023-11-19T01:15:11;42.97;;;5.63;;
65936;SDS011;52707;52.086;5.418;2023-11-19T01:17:37;42.70;;;6.80;;
65936;SDS011;52707;52.086;5.418;2023-11-19T01:20:04;44.20;;;5.78;;
65936;SDS011;52707;52.086;5.418;2023-11-19T01:22:32;49.10;;;6.05;;
65936;SDS011;52707;52.086;5.418;2023-11-19T01:24:59;46.67;;;5.90;;
65936;SDS011;52707;52.086;5.418;2023-11-19T01:27:25;58.65;;;7.70;;
65936;SDS011;52707;52.086;5.418;2023-11-19T01:29:51;53.08;;;7.05;;
65936;SDS011;52707;52.086;5.418;2023-11-19T01:32:18;43.80;;;6.60;;
65936;SDS011;52707;52.086;5.418;2023-11-19T01:34:45;57.42;;;6.22;;
65936;SDS011;52707;52.086;5.418;2023-11-19T01:37:11;45.00;;;6.28;;
65936;SDS011;52707;52.086;5.418;2023-11-19T01:39:39;44.78;;;6.88;;
65936;SDS011;52707;52.086;5.418;2023-11-19T01:42:05;47.55;;;7.05;;
65936;SDS011;52707;52.086;5.418;2023-11-19T01:44:31;49.75;;;8.00;;
65936;SDS011;52707;52.086;5.418;2023-11-19T01:46:58;43.90;;;5.78;;
65936;SDS011;52707;52.086;5.418;2023-11-19T01:49:24;57.65;;;6.75;;
65936;SDS011;52707;52.086;5.418;2023-11-19T01:51:51;50.38;;;6.43;;
65936;SDS011;52707;52.086;5.418;2023-11-19T01:54:17;51.05;;;7.10;;
65936;SDS011;52707;52.086;5.418;2023-11-19T01:56:44;54.17;;;6.47;;
65936;SDS011;52707;52.086;5.418;2023-11-19T01:59:10;51.05;;;7.47;;
65936;SDS011;52707;52.086;5.418;2023-11-19T02:01:37;50.55;;;7.20;;
65936;SDS011;52707;52.086;5.418;2023-11-19T02:04:06;50.20;;;7.13;;
65936;SDS011;52707;52.086;5.418;2023-11-19T02:06:34;46.50;;;6.85;;
65936;SDS011;52707;52.086;5.418;2023-11-19T02:09:00;54.25;;;7.97;;
65936;SDS011;52707;52.086;5.418;2023-11-19T02:11:27;46.80;;;7.22;;
65936;SDS011;52707;52.086;5.418;2023-11-19T02:13:55;48.50;;;6.57;;
65936;SDS011;52707;52.086;5.418;2023-11-19T02:16:23;65.63;;;7.25;;
65936;SDS011;52707;52.086;5.418;2023-11-19T02:18:49;59.60;;;7.60;;
65936;SDS011;52707;52.086;5.418;2023-11-19T02:21:15;55.80;;;7.60;;
65936;SDS011;52707;52.086;5.418;2023-11-19T02:23:43;54.80;;;7.80;;
65936;SDS011;52707;52.086;5.418;2023-11-19T02:26:14;64.50;;;7.68;;
65936;SDS011;52707;52.086;5.418;2023-11-19T02:28:44;46.45;;;6.55;;
65936;SDS011;52707;52.086;5.418;2023-11-19T02:31:11;63.80;;;8.27;;
65936;SDS011;52707;52.086;5.418;2023-11-19T02:33:38;58.15;;;8.52;;
65936;SDS011;52707;52.086;5.418;2023-11-19T02:36:05;57.80;;;7.78;;
65936;SDS011;52707;52.086;5.418;2023-11-19T02:38:33;73.28;;;7.90;;
65936;SDS011;52707;52.086;5.418;2023-11-19T02:41:00;78.05;;;9.52;;
65936;SDS011;52707;52.086;5.418;2023-11-19T02:43:28;65.40;;;8.15;;
65936;SDS011;52707;52.086;5.418;2023-11-19T02:45:54;57.65;;;8.60;;
65936;SDS011;52707;52.086;5.418;2023-11-19T02:48:22;67.28;;;8.25;;
65936;SDS011;52707;52.086;5.418;2023-11-19T02:50:48;65.47;;;9.60;;
65936;SDS011;52707;52.086;5.418;2023-11-19T02:53:14;61.55;;;6.93;;
65936;SDS011;52707;52.086;5.418;2023-11-19T02:55:42;59.15;;;7.47;;
65936;SDS011;52707;52.086;5.418;2023-11-19T02:58:14;60.05;;;8.80;;
65936;SDS011;52707;52.086;5.418;2023-11-19T03:00:49;67.07;;;9.35;;
65936;SDS011;52707;52.086;5.418;2023-11-19T03:03:28;60.25;;;8.55;;
65936;SDS011;52707;52.086;5.418;2023-11-19T03:05:57;70.90;;;8.93;;
65936;SDS011;52707;52.086;5.418;2023-11-19T03:08:23;55.88;;;8.48;;
65936;SDS011;52707;52.086;5.418;2023-11-19T03:10:50;64.82;;;8.70;;
65936;SDS011;52707;52.086;5.418;2023-11-19T03:13:16;59.60;;;8.57;;
65936;SDS011;52707;52.086;5.418;2023-11-19T03:15:46;73.95;;;9.70;;
65936;SDS011;52707;52.086;5.418;2023-11-19T03:18:12;80.13;;;9.82;;
65936;SDS011;52707;52.086;5.418;2023-11-19T03:20:39;73.05;;;9.77;;
65936;SDS011;52707;52.086;5.418;2023-11-19T03:23:06;60.85;;;9.13;;
65936;SDS011;52707;52.086;5.418;2023-11-19T03:25:33;58.65;;;9.30;;
65936;SDS011;52707;52.086;5.418;2023-11-19T03:28:00;67.47;;;7.85;;
65936;SDS011;52707;52.086;5.418;2023-11-19T03:30:28;73.05;;;9.85;;
65936;SDS011;52707;52.086;5.418;2023-11-19T03:32:57;67.30;;;7.82;;
65936;SDS011;52707;52.086;5.418;2023-11-19T03:35:24;66.43;;;8.48;;
65936;SDS011;52707;52.086;5.418;2023-11-19T03:37:50;70.80;;;9.15;;
65936;SDS011;52707;52.086;5.418;2023-11-19T03:40:17;67.45;;;8.07;;
65936;SDS011;52707;52.086;5.418;2023-11-19T03:42:45;69.60;;;9.88;;
65936;SDS011;52707;52.086;5.418;2023-11-19T03:45:12;67.88;;;8.23;;
65936;SDS011;52707;52.086;5.418;2023-11-19T03:47:38;73.47;;;9.15;;
65936;SDS011;52707;52.086;5.418;2023-11-19T03:50:05;63.80;;;7.28;;
65936;SDS011;52707;52.086;5.418;2023-11-19T03:52:32;65.60;;;9.07;;
65936;SDS011;52707;52.086;5.418;2023-11-19T03:55:09;62.85;;;9.15;;
65936;SDS011;52707;52.086;5.418;2023-11-19T03:57:35;70.47;;;8.73;;
65936;SDS011;52707;52.086;5.418;2023-11-19T04:00:02;72.15;;;9.10;;
65936;SDS011;52707;52.086;5.418;2023-11-19T04:02:38;71.32;;;8.88;;
65936;SDS011;52707;52.086;5.418;2023-11-19T04:05:04;72.60;;;9.60;;
65936;SDS011;52707;52.086;5.418;2023-11-19T04:07:31;72.70;;;9.32;;
65936;SDS011;52707;52.086;5.418;2023-11-19T04:09:58;63.63;;;8.68;;
65936;SDS011;52707;52.086;5.418;2023-11-19T04:12:25;72.32;;;8.88;;
65936;SDS011;52707;52.086;5.418;2023-11-19T04:14:51;52.17;;;8.27;;
65936;SDS011;52707;52.086;5.418;2023-11-19T04:17:20;68.88;;;8.43;;
65936;SDS011;52707;52.086;5.418;2023-11-19T04:19:47;65.47;;;8.45;;
65936;SDS011;52707;52.086;5.418;2023-11-19T04:22:13;74.03;;;10.85;;
65936;SDS011;52707;52.086;5.418;2023-11-19T04:24:39;69.28;;;9.73;;
65936;SDS011;52707;52.086;5.418;2023-11-19T04:27:06;82.32;;;10.48;;
65936;SDS011;52707;52.086;5.418;2023-11-19T04:29:33;63.55;;;8.60;;
65936;SDS011;52707;52.086;5.418;2023-11-19T04:32:00;60.13;;;8.27;;
65936;SDS011;52707;52.086;5.418;2023-11-19T04:34:27;58.33;;;8.73;;
65936;SDS011;52707;52.086;5.418;2023-11-19T04:36:53;69.70;;;8.90;;
65936;SDS011;52707;52.086;5.418;2023-11-19T04:39:20;68.88;;;10.13;;
65936;SDS011;52707;52.086;5.418;2023-11-19T04:41:47;68.28;;;8.20;;
65936;SDS011;52707;52.086;5.418;2023-11-19T04:44:15;62.10;;;9.80;;
65936;SDS011;52707;52.086;5.418;2023-11-19T04:46:42;74.35;;;10.18;;
65936;SDS011;52707;52.086;5.418;2023-11-19T04:49:12;66.13;;;8.20;;
65936;SDS011;52707;52.086;5.418;2023-11-19T04:51:39;70.80;;;9.35;;
65936;SDS011;52707;52.086;5.418;2023-11-19T04:54:06;61.42;;;8.65;;
65936;SDS011;52707;52.086;5.418;2023-11-19T04:56:35;62.00;;;9.02;;
65936;SDS011;52707;52.086;5.418;2023-11-19T04:59:02;63.97;;;7.78;;
65936;SDS011;52707;52.086;5.418;2023-11-19T05:01:29;54.65;;;8.55;;
65936;SDS011;52707;52.086;5.418;2023-11-19T05:03:56;60.60;;;9.32;;
65936;SDS011;52707;52.086;5.418;2023-11-19T05:06:23;61.05;;;8.90;;
65936;SDS011;52707;52.086;5.418;2023-11-19T05:08:51;62.78;;;8.13;;
65936;SDS011;52707;52.086;5.418;2023-11-19T05:11:18;67.22;;;8.98;;
65936;SDS011;52707;52.086;5.418;2023-11-19T05:13:45;62.25;;;8.73;;
65936;SDS011;52707;52.086;5.418;2023-11-19T05:16:12;70.88;;;9.05;;
65936;SDS011;52707;52.086;5.418;2023-11-19T05:18:41;51.17;;;8.23;;
65936;SDS011;52707;52.086;5.418;2023-11-19T05:21:09;61.30;;;10.00;;
65936;SDS011;52707;52.086;5.418;2023-11-19T05:23:35;62.47;;;7.80;;
65936;SDS011;52707;52.086;5.418;2023-11-19T05:26:02;72.78;;;9.23;;
65936;SDS011;52707;52.086;5.418;2023-11-19T05:28:31;71.97;;;9.52;;
65936;SDS011;52707;52.086;5.418;2023-11-19T05:30:57;63.30;;;8.30;;
65936;SDS011;52707;52.086;5.418;2023-11-19T05:33:24;69.07;;;8.80;;
65936;SDS011;52707;52.086;5.418;2023-11-19T05:35:50;73.88;;;7.95;;
65936;SDS011;52707;52.086;5.418;2023-11-19T05:38:17;70.75;;;10.60;;
65936;SDS011;52707;52.086;5.418;2023-11-19T05:40:43;60.60;;;8.00;;
65936;SDS011;52707;52.086;5.418;2023-11-19T05:43:10;65.35;;;9.15;;
65936;SDS011;52707;52.086;5.418;2023-11-19T05:45:36;75.78;;;9.77;;
65936;SDS011;52707;52.086;5.418;2023-11-19T05:48:02;59.35;;;8.07;;
65936;SDS011;52707;52.086;5.418;2023-11-19T05:50:30;59.72;;;8.25;;
65936;SDS011;52707;52.086;5.418;2023-11-19T05:52:57;69.70;;;9.82;;
65936;SDS011;52707;52.086;5.418;2023-11-19T05:55:23;59.97;;;8.40;;
65936;SDS011;52707;52.086;5.418;2023-11-19T05:57:50;60.03;;;8.73;;
65936;SDS011;52707;52.086;5.418;2023-11-19T06:00:18;77.53;;;10.45;;
65936;SDS011;52707;52.086;5.418;2023-11-19T06:02:44;74.22;;;10.82;;
65936;SDS011;52707;52.086;5.418;2023-11-19T06:05:10;55.70;;;8.18;;
65936;SDS011;52707;52.086;5.418;2023-11-19T06:07:37;65.57;;;9.02;;
65936;SDS011;52707;52.086;5.418;2023-11-19T06:10:05;71.55;;;8.70;;
65936;SDS011;52707;52.086;5.418;2023-11-19T06:12:33;67.75;;;10.02;;
65936;SDS011;52707;52.086;5.418;2023-11-19T06:17:29;64.32;;;8.95;;
65936;SDS011;52707;52.086;5.418;2023-11-19T06:19:56;72.97;;;8.75;;
65936;SDS011;52707;52.086;5.418;2023-11-19T06:22:22;77.18;;;10.20;;
65936;SDS011;52707;52.086;5.418;2023-11-19T06:24:49;61.67;;;8.95;;
65936;SDS011;52707;52.086;5.418;2023-11-19T06:27:15;63.92;;;8.95;;
65936;SDS011;52707;52.086;5.418;2023-11-19T06:29:41;72.13;;;8.73;;
65936;SDS011;52707;52.086;5.418;2023-11-19T06:32:08;74.25;;;8.63;;
65936;SDS011;52707;52.086;5.418;2023-11-19T06:34:37;66.35;;;8.93;;
65936;SDS011;52707;52.086;5.418;2023-11-19T06:37:04;67.93;;;8.55;;
65936;SDS011;52707;52.086;5.418;2023-11-19T06:39:30;62.20;;;8.77;;
65936;SDS011;52707;52.086;5.418;2023-11-19T06:41:56;57.42;;;9.18;;
65936;SDS011;52707;52.086;5.418;2023-11-19T06:44:23;68.80;;;9.85;;
65936;SDS011;52707;52.086;5.418;2023-11-19T06:46:51;70.35;;;9.65;;
65936;SDS011;52707;52.086;5.418;2023-11-19T06:49:17;71.90;;;11.05;;
65936;SDS011;52707;52.086;5.418;2023-11-19T06:51:45;57.92;;;8.55;;
65936;SDS011;52707;52.086;5.418;2023-11-19T06:54:12;60.20;;;8.05;;
65936;SDS011;52707;52.086;5.418;2023-11-19T06:56:38;69.93;;;9.23;;
65936;SDS011;52707;52.086;5.418;2023-11-19T06:59:05;62.17;;;8.68;;
65936;SDS011;52707;52.086;5.418;2023-11-19T07:01:34;69.03;;;9.13;;
65936;SDS011;52707;52.086;5.418;2023-11-19T07:04:01;60.28;;;10.27;;
65936;SDS011;52707;52.086;5.418;2023-11-19T07:06:34;71.07;;;9.88;;
65936;SDS011;52707;52.086;5.418;2023-11-19T07:09:01;66.10;;;8.65;;
65936;SDS011;52707;52.086;5.418;2023-11-19T07:11:38;65.45;;;8.90;;
65936;SDS011;52707;52.086;5.418;2023-11-19T07:14:05;65.47;;;10.23;;
65936;SDS011;52707;52.086;5.418;2023-11-19T07:16:35;63.17;;;7.97;;
65936;SDS011;52707;52.086;5.418;2023-11-19T07:19:03;74.90;;;9.55;;
65936;SDS011;52707;52.086;5.418;2023-11-19T07:21:31;75.93;;;10.65;;
65936;SDS011;52707;52.086;5.418;2023-11-19T07:23:59;72.28;;;9.93;;
65936;SDS011;52707;52.086;5.418;2023-11-19T07:26:25;74.45;;;9.52;;
65936;SDS011;52707;52.086;5.418;2023-11-19T07:28:52;54.35;;;7.43;;
65936;SDS011;52707;52.086;5.418;2023-11-19T07:31:18;65.88;;;9.00;;
65936;SDS011;52707;52.086;5.418;2023-11-19T07:33:47;64.50;;;9.60;;
65936;SDS011;52707;52.086;5.418;2023-11-19T07:36:14;64.72;;;9.43;;
65936;SDS011;52707;52.086;5.418;2023-11-19T07:38:40;57.83;;;8.50;;
65936;SDS011;52707;52.086;5.418;2023-11-19T07:41:07;68.95;;;8.82;;
65936;SDS011;52707;52.086;5.418;2023-11-19T07:43:36;60.33;;;8.95;;
65936;SDS011;52707;52.086;5.418;2023-11-19T07:46:02;60.45;;;8.07;;
65936;SDS011;52707;52.086;5.418;2023-11-19T07:48:30;62.05;;;9.23;;
65936;SDS011;52707;52.086;5.418;2023-11-19T07:50:57;59.17;;;8.88;;
65936;SDS011;52707;52.086;5.418;2023-11-19T07:53:24;72.53;;;8.38;;
65936;SDS011;52707;52.086;5.418;2023-11-19T07:55:50;83.80;;;9.13;;
65936;SDS011;52707;52.086;5.418;2023-11-19T07:58:16;70.25;;;8.48;;
65936;SDS011;52707;52.086;5.418;2023-11-19T08:00:43;69.78;;;8.93;;
65936;SDS011;52707;52.086;5.418;2023-11-19T08:03:10;62.55;;;8.13;;
65936;SDS011;52707;52.086;5.418;2023-11-19T08:05:37;66.72;;;9.45;;
65936;SDS011;52707;52.086;5.418;2023-11-19T08:08:03;64.45;;;8.52;;
65936;SDS011;52707;52.086;5.418;2023-11-19T08:10:30;51.85;;;7.10;;
65936;SDS011;52707;52.086;5.418;2023-11-19T08:12:56;72.82;;;8.90;;
65936;SDS011;52707;52.086;5.418;2023-11-19T08:15:22;60.75;;;8.38;;
65936;SDS011;52707;52.086;5.418;2023-11-19T08:17:52;76.15;;;9.52;;
65936;SDS011;52707;52.086;5.418;2023-11-19T08:20:18;64.85;;;10.52;;
65936;SDS011;52707;52.086;5.418;2023-11-19T08:22:44;73.38;;;9.15;;
65936;SDS011;52707;52.086;5.418;2023-11-19T08:25:11;60.50;;;8.38;;
65936;SDS011;52707;52.086;5.418;2023-11-19T08:27:37;54.80;;;6.63;;
65936;SDS011;52707;52.086;5.418;2023-11-19T08:30:04;63.15;;;8.30;;
65936;SDS011;52707;52.086;5.418;2023-11-19T08:32:32;64.00;;;10.20;;
65936;SDS011;52707;52.086;5.418;2023-11-19T08:34:58;58.17;;;7.68;;
65936;SDS011;52707;52.086;5.418;2023-11-19T08:37:25;61.22;;;7.85;;
65936;SDS011;52707;52.086;5.418;2023-11-19T08:39:52;52.70;;;7.93;;
65936;SDS011;52707;52.086;5.418;2023-11-19T08:42:19;63.70;;;9.63;;
65936;SDS011;52707;52.086;5.418;2023-11-19T08:44:48;60.92;;;8.60;;
65936;SDS011;52707;52.086;5.418;2023-11-19T08:47:16;59.13;;;8.85;;
65936;SDS011;52707;52.086;5.418;2023-11-19T08:49:44;57.15;;;9.43;;
65936;SDS011;52707;52.086;5.418;2023-11-19T08:52:10;70.70;;;9.02;;
65936;SDS011;52707;52.086;5.418;2023-11-19T08:54:37;69.78;;;8.98;;
65936;SDS011;52707;52.086;5.418;2023-11-19T08:57:03;47.70;;;7.72;;
65936;SDS011;52707;52.086;5.418;2023-11-19T08:59:30;43.70;;;6.95;;
65936;SDS011;52707;52.086;5.418;2023-11-19T09:01:56;54.03;;;7.25;;
65936;SDS011;52707;52.086;5.418;2023-11-19T09:04:23;58.10;;;8.75;;
65936;SDS011;52707;52.086;5.418;2023-11-19T09:06:49;54.40;;;7.95;;
65936;SDS011;52707;52.086;5.418;2023-11-19T09:09:16;52.90;;;7.03;;
65936;SDS011;52707;52.086;5.418;2023-11-19T09:11:42;55.38;;;7.50;;
65936;SDS011;52707;52.086;5.418;2023-11-19T09:14:09;64.22;;;7.93;;
65936;SDS011;52707;52.086;5.418;2023-11-19T09:16:35;57.67;;;7.78;;
65936;SDS011;52707;52.086;5.418;2023-11-19T09:19:01;55.58;;;7.57;;
65936;SDS011;52707;52.086;5.418;2023-11-19T09:21:32;53.40;;;7.97;;
65936;SDS011;52707;52.086;5.418;2023-11-19T09:24:00;44.53;;;7.05;;
65936;SDS011;52707;52.086;5.418;2023-11-19T09:26:27;57.75;;;9.05;;
65936;SDS011;52707;52.086;5.418;2023-11-19T09:28:53;48.70;;;6.35;;
65936;SDS011;52707;52.086;5.418;2023-11-19T09:31:20;57.15;;;8.20;;
65936;SDS011;52707;52.086;5.418;2023-11-19T09:33:47;51.20;;;7.47;;
65936;SDS011;52707;52.086;5.418;2023-11-19T09:36:13;51.03;;;7.63;;
65936;SDS011;52707;52.086;5.418;2023-11-19T09:38:40;53.63;;;7.80;;
65936;SDS011;52707;52.086;5.418;2023-11-19T09:41:06;59.95;;;7.72;;
65936;SDS011;52707;52.086;5.418;2023-11-19T09:43:39;55.30;;;8.40;;
65936;SDS011;52707;52.086;5.418;2023-11-19T09:46:06;49.53;;;7.97;;
65936;SDS011;52707;52.086;5.418;2023-11-19T09:48:33;52.47;;;8.02;;
65936;SDS011;52707;52.086;5.418;2023-11-19T09:51:01;53.47;;;7.20;;
65936;SDS011;52707;52.086;5.418;2023-11-19T09:53:28;55.60;;;7.57;;
65936;SDS011;52707;52.086;5.418;2023-11-19T09:55:54;51.75;;;6.82;;
65936;SDS011;52707;52.086;5.418;2023-11-19T09:58:21;51.83;;;7.43;;
65936;SDS011;52707;52.086;5.418;2023-11-19T10:00:49;62.35;;;9.90;;
65936;SDS011;52707;52.086;5.418;2023-11-19T10:03:36;52.25;;;8.15;;
65936;SDS011;52707;52.086;5.418;2023-11-19T10:06:07;61.50;;;8.80;;
65936;SDS011;52707;52.086;5.418;2023-11-19T10:08:33;60.95;;;9.50;;
65936;SDS011;52707;52.086;5.418;2023-11-19T10:11:00;62.15;;;10.90;;
65936;SDS011;52707;52.086;5.418;2023-11-19T10:13:26;46.78;;;7.90;;
65936;SDS011;52707;52.086;5.418;2023-11-19T10:15:56;49.07;;;8.80;;
65936;SDS011;52707;52.086;5.418;2023-11-19T10:18:26;54.92;;;7.95;;
65936;SDS011;52707;52.086;5.418;2023-11-19T10:20:52;42.80;;;7.13;;
65936;SDS011;52707;52.086;5.418;2023-11-19T10:23:19;46.75;;;7.63;;
65936;SDS011;52707;52.086;5.418;2023-11-19T10:25:46;42.67;;;7.68;;
65936;SDS011;52707;52.086;5.418;2023-11-19T10:28:14;43.85;;;7.63;;
65936;SDS011;52707;52.086;5.418;2023-11-19T10:30:42;61.57;;;7.80;;
65936;SDS011;52707;52.086;5.418;2023-11-19T10:33:09;40.55;;;7.43;;
65936;SDS011;52707;52.086;5.418;2023-11-19T10:35:37;39.22;;;6.65;;
65936;SDS011;52707;52.086;5.418;2023-11-19T10:38:27;51.78;;;7.20;;
65936;SDS011;52707;52.086;5.418;2023-11-19T10:40:54;40.45;;;7.20;;
65936;SDS011;52707;52.086;5.418;2023-11-19T10:43:20;45.10;;;8.10;;
65936;SDS011;52707;52.086;5.418;2023-11-19T10:45:51;45.75;;;7.70;;
65936;SDS011;52707;52.086;5.418;2023-11-19T10:48:18;40.08;;;6.35;;
65936;SDS011;52707;52.086;5.418;2023-11-19T10:50:45;46.20;;;7.55;;
65936;SDS011;52707;52.086;5.418;2023-11-19T10:53:12;39.80;;;7.57;;
65936;SDS011;52707;52.086;5.418;2023-11-19T10:55:46;46.22;;;7.00;;
65936;SDS011;52707;52.086;5.418;2023-11-19T10:58:13;49.05;;;7.20;;
65936;SDS011;52707;52.086;5.418;2023-11-19T11:03:09;48.17;;;6.43;;
65936;SDS011;52707;52.086;5.418;2023-11-19T11:05:36;46.00;;;7.68;;
65936;SDS011;52707;52.086;5.418;2023-11-19T11:08:05;55.15;;;7.97;;
65936;SDS011;52707;52.086;5.418;2023-11-19T11:10:32;46.33;;;8.10;;
65936;SDS011;52707;52.086;5.418;2023-11-19T11:13:02;41.58;;;7.03;;
65936;SDS011;52707;52.086;5.418;2023-11-19T11:15:30;43.15;;;6.97;;
65936;SDS011;52707;52.086;5.418;2023-11-19T11:17:59;46.65;;;6.95;;
65936;SDS011;52707;52.086;5.418;2023-11-19T11:23:02;45.85;;;7.97;;
65936;SDS011;52707;52.086;5.418;2023-11-19T11:28:12;56.83;;;8.13;;
65936;SDS011;52707;52.086;5.418;2023-11-19T11:33:31;47.90;;;8.35;;
65936;SDS011;52707;52.086;5.418;2023-11-19T11:38:42;47.53;;;7.20;;
65936;SDS011;52707;52.086;5.418;2023-11-19T11:41:15;46.42;;;7.70;;
65936;SDS011;52707;52.086;5.418;2023-11-19T11:43:45;50.90;;;7.88;;
65936;SDS011;52707;52.086;5.418;2023-11-19T11:48:58;37.05;;;6.03;;
65936;SDS011;52707;52.086;5.418;2023-11-19T11:54:11;50.60;;;7.78;;
65936;SDS011;52707;52.086;5.418;2023-11-19T11:57:01;51.47;;;6.85;;
65936;SDS011;52707;52.086;5.418;2023-11-19T11:59:37;49.40;;;7.47;;
65936;SDS011;52707;52.086;5.418;2023-11-19T12:02:04;52.38;;;8.00;;
65936;SDS011;52707;52.086;5.418;2023-11-19T12:04:30;40.78;;;6.72;;
65936;SDS011;52707;52.086;5.418;2023-11-19T12:07:03;46.30;;;6.43;;
65936;SDS011;52707;52.086;5.418;2023-11-19T12:09:30;42.30;;;6.45;;
65936;SDS011;52707;52.086;5.418;2023-11-19T12:20:07;35.20;;;6.40;;
65936;SDS011;52707;52.086;5.418;2023-11-19T12:22:38;41.13;;;5.53;;
65936;SDS011;52707;52.086;5.418;2023-11-19T12:25:08;39.78;;;8.10;;
65936;SDS011;52707;52.086;5.418;2023-11-19T12:27:35;30.88;;;6.35;;
65936;SDS011;52707;52.086;5.418;2023-11-19T12:30:02;36.15;;;4.65;;
65936;SDS011;52707;52.086;5.418;2023-11-19T12:32:41;39.33;;;6.07;;
65936;SDS011;52707;52.086;5.418;2023-11-19T12:35:08;40.00;;;6.15;;
65936;SDS011;52707;52.086;5.418;2023-11-19T12:37:41;39.70;;;5.97;;
65936;SDS011;52707;52.086;5.418;2023-11-19T12:40:25;52.20;;;6.57;;
65936;SDS011;52707;52.086;5.418;2023-11-19T12:42:52;39.03;;;5.60;;
65936;SDS011;52707;52.086;5.418;2023-11-19T12:45:20;37.50;;;6.25;;
65936;SDS011;52707;52.086;5.418;2023-11-19T12:47:47;47.60;;;7.20;;
65936;SDS011;52707;52.086;5.418;2023-11-19T12:50:15;44.33;;;6.85;;
65936;SDS011;52707;52.086;5.418;2023-11-19T12:52:43;41.97;;;7.30;;
65936;SDS011;52707;52.086;5.418;2023-11-19T12:55:28;46.17;;;6.75;;
65936;SDS011;52707;52.086;5.418;2023-11-19T12:57:56;47.70;;;9.60;;
65936;SDS011;52707;52.086;5.418;2023-11-19T13:00:25;36.58;;;6.80;;
65936;SDS011;52707;52.086;5.418;2023-11-19T13:02:55;37.67;;;6.72;;
65936;SDS011;52707;52.086;5.418;2023-11-19T13:08:02;35.75;;;6.35;;
65936;SDS011;52707;52.086;5.418;2023-11-19T13:10:29;49.47;;;7.25;;
65936;SDS011;52707;52.086;5.418;2023-11-19T13:13:05;43.42;;;6.45;;
65936;SDS011;52707;52.086;5.418;2023-11-19T13:15:32;45.15;;;5.68;;
65936;SDS011;52707;52.086;5.418;2023-11-19T13:17:59;53.08;;;6.03;;
65936;SDS011;52707;52.086;5.418;2023-11-19T13:20:26;32.60;;;5.50;;
65936;SDS011;52707;52.086;5.418;2023-11-19T13:25:21;42.85;;;7.05;;
65936;SDS011;52707;52.086;5.418;2023-11-19T13:27:48;51.00;;;7.63;;
65936;SDS011;52707;52.086;5.418;2023-11-19T13:30:14;47.47;;;7.35;;
65936;SDS011;52707;52.086;5.418;2023-11-19T13:32:44;43.42;;;7.07;;
65936;SDS011;52707;52.086;5.418;2023-11-19T13:35:12;43.75;;;7.53;;
65936;SDS011;52707;52.086;5.418;2023-11-19T13:37:39;55.70;;;8.35;;
65936;SDS011;52707;52.086;5.418;2023-11-19T13:40:08;46.00;;;7.15;;
65936;SDS011;52707;52.086;5.418;2023-11-19T13:42:40;38.97;;;6.38;;
65936;SDS011;52707;52.086;5.418;2023-11-19T13:45:10;50.70;;;7.60;;
65936;SDS011;52707;52.086;5.418;2023-11-19T13:47:41;45.72;;;7.47;;
65936;SDS011;52707;52.086;5.418;2023-11-19T13:50:09;55.38;;;10.20;;
65936;SDS011;52707;52.086;5.418;2023-11-19T13:52:35;51.03;;;7.38;;
65936;SDS011;52707;52.086;5.418;2023-11-19T13:55:07;46.42;;;7.18;;
65936;SDS011;52707;52.086;5.418;2023-11-19T13:57:35;38.00;;;6.85;;
65936;SDS011;52707;52.086;5.418;2023-11-19T14:00:02;44.47;;;8.00;;
65936;SDS011;52707;52.086;5.418;2023-11-19T14:02:33;44.95;;;5.18;;
65936;SDS011;52707;52.086;5.418;2023-11-19T14:04:59;37.53;;;6.90;;
65936;SDS011;52707;52.086;5.418;2023-11-19T14:07:26;41.45;;;6.20;;
65936;SDS011;52707;52.086;5.418;2023-11-19T14:09:52;41.08;;;7.32;;
65936;SDS011;52707;52.086;5.418;2023-11-19T14:12:19;43.42;;;5.55;;
65936;SDS011;52707;52.086;5.418;2023-11-19T14:14:45;39.65;;;6.38;;
65936;SDS011;52707;52.086;5.418;2023-11-19T14:17:11;38.47;;;5.97;;
65936;SDS011;52707;52.086;5.418;2023-11-19T14:19:40;42.15;;;6.95;;
65936;SDS011;52707;52.086;5.418;2023-11-19T14:22:06;37.83;;;6.10;;
65936;SDS011;52707;52.086;5.418;2023-11-19T14:24:33;48.28;;;7.65;;
65936;SDS011;52707;52.086;5.418;2023-11-19T14:27:00;33.15;;;5.65;;
65936;SDS011;52707;52.086;5.418;2023-11-19T14:29:27;39.47;;;6.80;;
65936;SDS011;52707;52.086;5.418;2023-11-19T14:31:55;53.10;;;8.02;;
65936;SDS011;52707;52.086;5.418;2023-11-19T14:34:22;42.08;;;7.32;;
65936;SDS011;52707;52.086;5.418;2023-11-19T14:36:48;39.33;;;6.78;;
65936;SDS011;52707;52.086;5.418;2023-11-19T14:39:15;42.65;;;6.63;;
65936;SDS011;52707;52.086;5.418;2023-11-19T14:41:42;47.80;;;7.78;;
65936;SDS011;52707;52.086;5.418;2023-11-19T14:44:09;42.38;;;7.32;;
65936;SDS011;52707;52.086;5.418;2023-11-19T14:46:36;37.35;;;5.97;;
65936;SDS011;52707;52.086;5.418;2023-11-19T14:49:02;49.53;;;7.90;;
65936;SDS011;52707;52.086;5.418;2023-11-19T14:51:30;42.47;;;7.10;;
65936;SDS011;52707;52.086;5.418;2023-11-19T14:53:57;39.08;;;6.18;;
65936;SDS011;52707;52.086;5.418;2023-11-19T14:56:24;46.80;;;7.40;;
65936;SDS011;52707;52.086;5.418;2023-11-19T14:58:50;47.17;;;6.55;;
65936;SDS011;52707;52.086;5.418;2023-11-19T15:01:17;47.33;;;7.45;;
65936;SDS011;52707;52.086;5.418;2023-11-19T15:03:44;37.85;;;5.95;;
65936;SDS011;52707;52.086;5.418;2023-11-19T15:06:13;41.33;;;6.72;;
65936;SDS011;52707;52.086;5.418;2023-11-19T15:08:39;63.97;;;8.25;;
65936;SDS011;52707;52.086;5.418;2023-11-19T15:11:06;47.95;;;7.60;;